sensor_id;sensor_type;location;lat;lon;timestamp;pressure;altitude;pressure_sealevel;temperature;humidity
84795;BME280;75026;49.184;16.564;2024-02-26T00:00:15;97543.94;;;19.95;66.78
84795;BME280;75026;49.184;16.564;2024-02-26T00:05:36;97543.31;;;19.91;66.71
84795;BME280;75026;49.184;16.564;2024-02-26T00:10:39;97544.25;;;19.88;66.75
84795;BME280;75026;49.184;16.564;2024-02-26T00:15:40;97554.47;;;19.81;66.97
84795;BME280;75026;49.184;16.564;2024-02-26T00:20:41;97543.03;;;19.79;67.21
84795;BME280;75026;49.184;16.564;2024-02-26T00:25:43;97544.56;;;19.80;67.03
84795;BME280;75026;49.184;16.564;2024-02-26T00:30:44;97525.03;;;19.80;67.09
84795;BME280;75026;49.184;16.564;2024-02-26T00:35:45;97536.03;;;19.75;67.15
84795;BME280;75026;49.184;16.564;2024-02-26T00:40:46;97530.91;;;19.73;67.33
84795;BME280;75026;49.184;16.564;2024-02-26T00:45:47;97528.28;;;19.70;67.32
84795;BME280;75026;49.184;16.564;2024-02-26T00:50:48;97519.91;;;19.70;67.44
84795;BME280;75026;49.184;16.564;2024-02-26T00:55:49;97525.97;;;19.68;67.48
84795;BME280;75026;49.184;16.564;2024-02-26T01:00:50;97516.97;;;19.64;67.43
84795;BME280;75026;49.184;16.564;2024-02-26T01:05:51;97509.06;;;19.63;67.54
84795;BME280;75026;49.184;16.564;2024-02-26T01:10:52;97503.47;;;19.63;67.49
84795;BME280;75026;49.184;16.564;2024-02-26T01:15:53;97508.91;;;19.57;67.74
84795;BME280;75026;49.184;16.564;2024-02-26T01:20:53;97504.84;;;19.58;67.79
84795;BME280;75026;49.184;16.564;2024-02-26T01:25:55;97503.00;;;19.55;67.93
84795;BME280;75026;49.184;16.564;2024-02-26T01:30:55;97494.63;;;19.55;67.62
84795;BME280;75026;49.184;16.564;2024-02-26T01:35:57;97491.66;;;19.49;68.08
84795;BME280;75026;49.184;16.564;2024-02-26T01:40:57;97488.59;;;19.47;68.02
84795;BME280;75026;49.184;16.564;2024-02-26T01:45:58;97487.03;;;19.46;67.83
84795;BME280;75026;49.184;16.564;2024-02-26T01:50:59;97477.09;;;19.45;68.01
84795;BME280;75026;49.184;16.564;2024-02-26T01:56:00;97475.56;;;19.44;68.02
84795;BME280;75026;49.184;16.564;2024-02-26T02:01:02;97476.94;;;19.49;67.91
84795;BME280;75026;49.184;16.564;2024-02-26T02:06:04;97475.41;;;19.57;67.64
84795;BME280;75026;49.184;16.564;2024-02-26T02:11:06;97483.47;;;19.64;67.51
84795;BME280;75026;49.184;16.564;2024-02-26T02:16:07;97485.31;;;19.76;67.40
84795;BME280;75026;49.184;16.564;2024-02-26T02:21:08;97493.22;;;19.87;67.06
84795;BME280;75026;49.184;16.564;2024-02-26T02:26:09;97486.66;;;19.99;67.11
84795;BME280;75026;49.184;16.564;2024-02-26T02:31:11;97485.66;;;20.12;67.06
84795;BME280;75026;49.184;16.564;2024-02-26T02:36:13;97470.88;;;20.20;67.01
84795;BME280;75026;49.184;16.564;2024-02-26T02:41:14;97471.34;;;20.28;67.09
84795;BME280;75026;49.184;16.564;2024-02-26T02:46:14;97467.13;;;20.32;67.10
84795;BME280;75026;49.184;16.564;2024-02-26T02:51:15;97460.59;;;20.36;67.10
84795;BME280;75026;49.184;16.564;2024-02-26T02:56:16;97458.84;;;20.38;67.07
84795;BME280;75026;49.184;16.564;2024-02-26T03:01:17;97458.09;;;20.38;66.84
84795;BME280;75026;49.184;16.564;2024-02-26T03:06:18;97463.22;;;20.39;66.82
84795;BME280;75026;49.184;16.564;2024-02-26T03:11:21;97451.41;;;20.35;66.85
84795;BME280;75026;49.184;16.564;2024-02-26T03:16:22;97449.41;;;20.36;66.92
84795;BME280;75026;49.184;16.564;2024-02-26T03:21:24;97452.66;;;20.34;66.91
84795;BME280;75026;49.184;16.564;2024-02-26T03:26:25;97457.19;;;20.31;67.10
84795;BME280;75026;49.184;16.564;2024-02-26T03:31:26;97451.78;;;20.28;67.01
84795;BME280;75026;49.184;16.564;2024-02-26T03:36:27;97460.94;;;20.28;67.05
84795;BME280;75026;49.184;16.564;2024-02-26T03:41:28;97447.13;;;20.25;67.07
84795;BME280;75026;49.184;16.564;2024-02-26T03:46:29;97457.81;;;20.26;67.13
84795;BME280;75026;49.184;16.564;2024-02-26T03:51:30;97440.47;;;20.22;67.18
84795;BME280;75026;49.184;16.564;2024-02-26T03:56:32;97441.72;;;20.21;67.27
84795;BME280;75026;49.184;16.564;2024-02-26T04:01:32;97443.59;;;20.15;67.38
84795;BME280;75026;49.184;16.564;2024-02-26T04:06:33;97442.81;;;20.15;67.33
84795;BME280;75026;49.184;16.564;2024-02-26T04:11:34;97447.94;;;20.16;67.30
84795;BME280;75026;49.184;16.564;2024-02-26T04:16:35;97446.56;;;20.12;67.34
84795;BME280;75026;49.184;16.564;2024-02-26T04:21:41;97447.31;;;20.12;67.26
84795;BME280;75026;49.184;16.564;2024-02-26T04:26:41;97445.19;;;20.07;67.26
84795;BME280;75026;49.184;16.564;2024-02-26T04:31:42;97443.34;;;20.04;67.36
84795;BME280;75026;49.184;16.564;2024-02-26T04:36:43;97441.78;;;20.03;67.47
84795;BME280;75026;49.184;16.564;2024-02-26T04:41:44;97430.00;;;19.99;67.33
84795;BME280;75026;49.184;16.564;2024-02-26T04:46:45;97431.72;;;19.96;67.45
84795;BME280;75026;49.184;16.564;2024-02-26T04:51:46;97434.41;;;19.91;67.50
84795;BME280;75026;49.184;16.564;2024-02-26T04:56:48;97431.59;;;19.91;67.60
84795;BME280;75026;49.184;16.564;2024-02-26T05:01:49;97430.81;;;19.90;67.52
84795;BME280;75026;49.184;16.564;2024-02-26T05:06:52;97428.66;;;19.85;67.45
84795;BME280;75026;49.184;16.564;2024-02-26T05:11:54;97419.19;;;19.82;67.57
84795;BME280;75026;49.184;16.564;2024-02-26T05:16:54;97422.47;;;19.81;67.66
84795;BME280;75026;49.184;16.564;2024-02-26T05:21:56;97425.75;;;19.79;67.49
84795;BME280;75026;49.184;16.564;2024-02-26T05:26:57;97432.25;;;19.76;67.78
84795;BME280;75026;49.184;16.564;2024-02-26T05:31:58;97431.94;;;19.74;67.59
84795;BME280;75026;49.184;16.564;2024-02-26T05:36:59;97427.63;;;19.73;67.75
84795;BME280;75026;49.184;16.564;2024-02-26T05:42:00;97417.38;;;19.70;67.76
84795;BME280;75026;49.184;16.564;2024-02-26T05:47:01;97420.66;;;19.69;67.84
84795;BME280;75026;49.184;16.564;2024-02-26T05:52:01;97433.84;;;19.68;67.74
84795;BME280;75026;49.184;16.564;2024-02-26T05:57:02;97436.81;;;19.65;67.86
84795;BME280;75026;49.184;16.564;2024-02-26T06:02:04;97441.28;;;19.62;67.84
84795;BME280;75026;49.184;16.564;2024-02-26T06:07:05;97444.53;;;19.60;nan
84795;BME280;75026;49.184;16.564;2024-02-26T06:12:06;97453.38;;;19.59;67.90
84795;BME280;75026;49.184;16.564;2024-02-26T06:17:07;97447.66;;;19.53;68.05
84795;BME280;75026;49.184;16.564;2024-02-26T06:22:08;97456.78;;;19.54;67.90
84795;BME280;75026;49.184;16.564;2024-02-26T06:27:09;97460.50;;;19.51;68.06
84795;BME280;75026;49.184;16.564;2024-02-26T06:32:09;97466.38;;;19.53;68.06
84795;BME280;75026;49.184;16.564;2024-02-26T06:37:10;97472.44;;;19.51;nan
84795;BME280;75026;49.184;16.564;2024-02-26T06:42:11;97476.16;;;19.48;68.01
84795;BME280;75026;49.184;16.564;2024-02-26T06:47:12;97484.25;;;19.46;68.03
84795;BME280;75026;49.184;16.564;2024-02-26T06:52:13;97484.69;;;19.45;67.89
84795;BME280;75026;49.184;16.564;2024-02-26T06:57:14;97487.19;;;19.43;68.06
84795;BME280;75026;49.184;16.564;2024-02-26T07:02:15;97488.91;;;19.40;67.97
84795;BME280;75026;49.184;16.564;2024-02-26T07:07:17;97487.34;;;19.39;68.10
84795;BME280;75026;49.184;16.564;2024-02-26T07:12:19;97488.91;;;19.40;67.97
84795;BME280;75026;49.184;16.564;2024-02-26T07:17:21;97481.44;;;19.37;68.07
84795;BME280;75026;49.184;16.564;2024-02-26T07:22:22;97488.28;;;19.36;67.96
84795;BME280;75026;49.184;16.564;2024-02-26T07:27:23;97488.75;;;19.34;68.01
84795;BME280;75026;49.184;16.564;2024-02-26T07:32:24;97492.31;;;19.35;67.95
84795;BME280;75026;49.184;16.564;2024-02-26T07:37:25;97496.81;;;19.32;68.10
84795;BME280;75026;49.184;16.564;2024-02-26T07:42:26;97485.31;;;19.30;67.91
84795;BME280;75026;49.184;16.564;2024-02-26T07:47:27;97483.00;;;19.29;67.88
84795;BME280;75026;49.184;16.564;2024-02-26T07:52:28;97481.75;;;19.30;68.17
84795;BME280;75026;49.184;16.564;2024-02-26T07:57:29;97486.75;;;19.35;67.83
84795;BME280;75026;49.184;16.564;2024-02-26T08:02:29;97483.94;;;19.44;67.62
84795;BME280;75026;49.184;16.564;2024-02-26T08:07:30;97479.56;;;19.52;67.39
84795;BME280;75026;49.184;16.564;2024-02-26T08:12:31;97488.88;;;19.58;67.48
84795;BME280;75026;49.184;16.564;2024-02-26T08:17:32;97490.91;;;19.76;67.15
84795;BME280;75026;49.184;16.564;2024-02-26T08:22:33;97496.13;;;19.93;66.85
84795;BME280;75026;49.184;16.564;2024-02-26T08:27:34;97490.38;;;20.05;66.68
84795;BME280;75026;49.184;16.564;2024-02-26T08:32:35;97500.84;;;20.20;66.63
84795;BME280;75026;49.184;16.564;2024-02-26T08:37:36;97494.47;;;20.28;65.15
84795;BME280;75026;49.184;16.564;2024-02-26T08:42:37;97502.19;;;20.33;64.11
84795;BME280;75026;49.184;16.564;2024-02-26T08:47:38;97493.34;;;20.35;63.17
84795;BME280;75026;49.184;16.564;2024-02-26T08:52:39;97498.63;;;20.33;62.05
84795;BME280;75026;49.184;16.564;2024-02-26T08:57:40;97483.88;;;20.32;62.00
84795;BME280;75026;49.184;16.564;2024-02-26T09:02:41;97488.72;;;20.32;61.08
84795;BME280;75026;49.184;16.564;2024-02-26T09:07:44;97486.97;;;20.34;60.82
84795;BME280;75026;49.184;16.564;2024-02-26T09:12:45;97482.34;;;20.31;60.93
84795;BME280;75026;49.184;16.564;2024-02-26T09:17:46;97482.06;;;20.20;59.61
84795;BME280;75026;49.184;16.564;2024-02-26T09:22:47;97492.19;;;20.18;60.20
84795;BME280;75026;49.184;16.564;2024-02-26T09:27:49;97481.88;;;20.24;60.89
84795;BME280;75026;49.184;16.564;2024-02-26T09:32:51;97486.84;;;20.29;61.45
84795;BME280;75026;49.184;16.564;2024-02-26T09:37:52;97485.44;;;20.33;62.77
84795;BME280;75026;49.184;16.564;2024-02-26T09:42:59;97486.69;;;20.32;62.90
84795;BME280;75026;49.184;16.564;2024-02-26T09:48:00;97489.75;;;20.34;63.27
84795;BME280;75026;49.184;16.564;2024-02-26T09:53:04;97489.31;;;20.36;63.70
84795;BME280;75026;49.184;16.564;2024-02-26T09:58:08;97483.38;;;20.43;64.17
84795;BME280;75026;49.184;16.564;2024-02-26T10:03:13;97487.44;;;20.33;63.43
84795;BME280;75026;49.184;16.564;2024-02-26T10:08:16;97482.34;;;20.31;63.22
84795;BME280;75026;49.184;16.564;2024-02-26T10:13:19;97493.53;;;20.31;63.59
84795;BME280;75026;49.184;16.564;2024-02-26T10:18:22;97507.78;;;20.33;63.92
84795;BME280;75026;49.184;16.564;2024-02-26T10:23:25;97509.22;;;20.20;61.88
84795;BME280;75026;49.184;16.564;2024-02-26T10:28:29;97508.63;;;20.16;61.66
84795;BME280;75026;49.184;16.564;2024-02-26T10:33:33;97524.00;;;20.11;61.11
84795;BME280;75026;49.184;16.564;2024-02-26T10:38:37;97514.44;;;19.94;59.45
84795;BME280;75026;49.184;16.564;2024-02-26T10:43:40;97515.31;;;20.09;61.57
84795;BME280;75026;49.184;16.564;2024-02-26T10:48:49;97514.38;;;20.12;62.16
84795;BME280;75026;49.184;16.564;2024-02-26T10:53:51;97528.34;;;20.21;62.37
84795;BME280;75026;49.184;16.564;2024-02-26T10:58:55;97508.13;;;20.26;62.76
84795;BME280;75026;49.184;16.564;2024-02-26T11:03:57;97500.38;;;20.21;62.92
84795;BME280;75026;49.184;16.564;2024-02-26T11:08:59;97490.75;;;20.22;62.53
84795;BME280;75026;49.184;16.564;2024-02-26T11:14:03;97492.28;;;20.23;61.78
84795;BME280;75026;49.184;16.564;2024-02-26T11:19:06;97485.66;;;20.21;62.69
84795;BME280;75026;49.184;16.564;2024-02-26T11:24:12;97483.97;;;20.14;62.72
84795;BME280;75026;49.184;16.564;2024-02-26T11:29:17;97486.16;;;20.10;62.93
84795;BME280;75026;49.184;16.564;2024-02-26T11:34:20;97488.34;;;20.06;63.08
84795;BME280;75026;49.184;16.564;2024-02-26T11:39:21;97481.97;;;20.05;63.35
84795;BME280;75026;49.184;16.564;2024-02-26T11:44:29;97495.94;;;20.05;63.23
84795;BME280;75026;49.184;16.564;2024-02-26T11:49:31;97486.78;;;20.05;63.58
84795;BME280;75026;49.184;16.564;2024-02-26T11:59:39;97482.91;;;20.02;63.42
84795;BME280;75026;49.184;16.564;2024-02-26T12:04:41;97493.00;;;20.00;63.59
84795;BME280;75026;49.184;16.564;2024-02-26T12:09:42;97470.34;;;19.98;63.73
84795;BME280;75026;49.184;16.564;2024-02-26T12:14:53;97480.47;;;19.95;63.63
84795;BME280;75026;49.184;16.564;2024-02-26T12:20:08;97475.31;;;19.94;63.94
84795;BME280;75026;49.184;16.564;2024-02-26T12:25:10;97464.94;;;19.94;63.80
84795;BME280;75026;49.184;16.564;2024-02-26T12:30:11;97469.75;;;19.94;64.05
84795;BME280;75026;49.184;16.564;2024-02-26T12:35:13;97483.25;;;19.95;63.96
84795;BME280;75026;49.184;16.564;2024-02-26T12:40:14;97472.53;;;19.94;64.19
84795;BME280;75026;49.184;16.564;2024-02-26T12:45:15;97462.00;;;19.89;64.10
84795;BME280;75026;49.184;16.564;2024-02-26T12:50:17;97468.38;;;19.89;64.17
84795;BME280;75026;49.184;16.564;2024-02-26T12:55:19;97459.53;;;19.91;64.17
84795;BME280;75026;49.184;16.564;2024-02-26T13:00:26;97468.06;;;19.87;64.20
84795;BME280;75026;49.184;16.564;2024-02-26T13:05:27;97468.06;;;19.87;64.21
84795;BME280;75026;49.184;16.564;2024-02-26T13:10:28;97456.41;;;19.89;64.25
84795;BME280;75026;49.184;16.564;2024-02-26T13:15:29;97466.34;;;19.90;64.41
84795;BME280;75026;49.184;16.564;2024-02-26T13:20:30;97465.72;;;19.85;64.45
84795;BME280;75026;49.184;16.564;2024-02-26T13:25:32;97486.81;;;19.86;64.45
84795;BME280;75026;49.184;16.564;2024-02-26T13:30:33;97467.28;;;19.86;64.44
84795;BME280;75026;49.184;16.564;2024-02-26T13:35:34;97474.13;;;19.85;64.43
84795;BME280;75026;49.184;16.564;2024-02-26T13:40:35;97483.75;;;19.84;64.45
84795;BME280;75026;49.184;16.564;2024-02-26T13:45:38;97470.06;;;19.86;64.39
84795;BME280;75026;49.184;16.564;2024-02-26T13:50:39;97478.94;;;19.85;64.47
84795;BME280;75026;49.184;16.564;2024-02-26T13:55:41;97475.03;;;19.82;64.49
84795;BME280;75026;49.184;16.564;2024-02-26T14:00:44;97489.50;;;19.81;64.55
84795;BME280;75026;49.184;16.564;2024-02-26T14:05:45;97494.31;;;19.80;64.59
84795;BME280;75026;49.184;16.564;2024-02-26T14:10:46;97488.41;;;19.78;64.70
84795;BME280;75026;49.184;16.564;2024-02-26T14:15:46;97489.66;;;19.77;64.73
84795;BME280;75026;49.184;16.564;2024-02-26T14:20:47;97493.69;;;19.76;64.57
84795;BME280;75026;49.184;16.564;2024-02-26T14:25:48;97500.22;;;19.73;64.57
84795;BME280;75026;49.184;16.564;2024-02-26T14:30:49;97510.13;;;19.74;64.68
84795;BME280;75026;49.184;16.564;2024-02-26T14:35:50;97514.16;;;19.73;64.84
84795;BME280;75026;49.184;16.564;2024-02-26T14:40:50;97513.84;;;19.71;64.78
84795;BME280;75026;49.184;16.564;2024-02-26T14:45:51;97506.72;;;19.70;64.73
84795;BME280;75026;49.184;16.564;2024-02-26T14:50:52;97511.06;;;19.71;64.56
84795;BME280;75026;49.184;16.564;2024-02-26T14:55:53;97513.56;;;19.69;64.69
84795;BME280;75026;49.184;16.564;2024-02-26T15:00:54;97521.63;;;19.67;64.98
84795;BME280;75026;49.184;16.564;2024-02-26T15:05:55;97525.50;;;19.70;64.54
84795;BME280;75026;49.184;16.564;2024-02-26T15:10:56;97517.28;;;19.66;64.97
84795;BME280;75026;49.184;16.564;2024-02-26T15:15:57;97510.16;;;19.65;64.68
84795;BME280;75026;49.184;16.564;2024-02-26T15:20:58;97522.53;;;19.64;64.94
84795;BME280;75026;49.184;16.564;2024-02-26T15:26:06;97519.47;;;19.62;64.78
84795;BME280;75026;49.184;16.564;2024-02-26T15:31:11;97522.25;;;19.62;64.95
84795;BME280;75026;49.184;16.564;2024-02-26T15:36:11;97530.63;;;19.62;64.99
84795;BME280;75026;49.184;16.564;2024-02-26T15:41:13;97535.09;;;19.59;65.12
84795;BME280;75026;49.184;16.564;2024-02-26T15:46:14;97535.09;;;19.59;64.81
84795;BME280;75026;49.184;16.564;2024-02-26T15:51:20;97535.84;;;19.60;64.59
84795;BME280;75026;49.184;16.564;2024-02-26T15:56:21;97536.66;;;19.42;63.69
84795;BME280;75026;49.184;16.564;2024-02-26T16:01:25;97553.56;;;19.38;63.14
84795;BME280;75026;49.184;16.564;2024-02-26T16:11:35;97562.53;;;19.52;61.95
84795;BME280;75026;49.184;16.564;2024-02-26T16:16:42;97565.34;;;19.61;62.38
84795;BME280;75026;49.184;16.564;2024-02-26T16:21:45;97581.00;;;19.68;62.72
84795;BME280;75026;49.184;16.564;2024-02-26T16:26:45;97578.38;;;19.73;62.81
84795;BME280;75026;49.184;16.564;2024-02-26T16:31:47;97590.16;;;19.77;62.92
84795;BME280;75026;49.184;16.564;2024-02-26T16:36:48;97595.91;;;19.83;63.23
84795;BME280;75026;49.184;16.564;2024-02-26T16:41:50;97596.06;;;19.89;63.05
84795;BME280;75026;49.184;16.564;2024-02-26T16:46:50;97601.50;;;19.92;63.15
84795;BME280;75026;49.184;16.564;2024-02-26T16:51:51;97618.84;;;19.96;63.19
84795;BME280;75026;49.184;16.564;2024-02-26T16:56:52;97614.38;;;19.99;63.14
84795;BME280;75026;49.184;16.564;2024-02-26T17:01:54;97625.38;;;20.02;63.28
84795;BME280;75026;49.184;16.564;2024-02-26T17:07:00;97627.69;;;20.04;63.27
84795;BME280;75026;49.184;16.564;2024-02-26T17:12:01;97636.06;;;20.04;63.24
84795;BME280;75026;49.184;16.564;2024-02-26T17:17:03;97646.31;;;20.07;63.23
84795;BME280;75026;49.184;16.564;2024-02-26T17:22:05;97650.66;;;20.08;63.31
84795;BME280;75026;49.184;16.564;2024-02-26T17:27:12;97648.34;;;20.06;63.45
84795;BME280;75026;49.184;16.564;2024-02-26T17:32:13;97654.53;;;20.10;63.43
84795;BME280;75026;49.184;16.564;2024-02-26T17:37:15;97660.28;;;19.98;62.77
84795;BME280;75026;49.184;16.564;2024-02-26T17:42:16;97657.34;;;19.65;62.17
84795;BME280;75026;49.184;16.564;2024-02-26T17:47:17;97675.25;;;19.45;62.34
84795;BME280;75026;49.184;16.564;2024-02-26T17:52:18;97685.31;;;19.33;61.81
84795;BME280;75026;49.184;16.564;2024-02-26T17:57:19;97686.69;;;19.38;61.62
84795;BME280;75026;49.184;16.564;2024-02-26T18:02:26;97700.47;;;19.73;61.73
84795;BME280;75026;49.184;16.564;2024-02-26T18:07:28;97694.59;;;19.80;61.87
84795;BME280;75026;49.184;16.564;2024-02-26T18:12:30;97697.00;;;19.59;59.37
84795;BME280;75026;49.184;16.564;2024-02-26T18:17:32;97686.88;;;19.53;61.56
84795;BME280;75026;49.184;16.564;2024-02-26T18:22:33;97696.28;;;19.77;61.94
84795;BME280;75026;49.184;16.564;2024-02-26T18:27:36;97701.56;;;19.94;61.77
84795;BME280;75026;49.184;16.564;2024-02-26T18:32:38;97707.16;;;20.03;61.91
84795;BME280;75026;49.184;16.564;2024-02-26T18:37:39;97708.56;;;20.07;62.31
84795;BME280;75026;49.184;16.564;2024-02-26T18:42:40;97698.47;;;20.10;62.52
84795;BME280;75026;49.184;16.564;2024-02-26T18:47:41;97706.09;;;20.09;62.68
84795;BME280;75026;49.184;16.564;2024-02-26T18:52:43;97707.63;;;20.10;62.94
84795;BME280;75026;49.184;16.564;2024-02-26T18:57:47;97703.59;;;20.12;62.70
84795;BME280;75026;49.184;16.564;2024-02-26T19:02:48;97714.59;;;20.15;62.85
84795;BME280;75026;49.184;16.564;2024-02-26T19:07:49;97716.47;;;20.18;62.99
84795;BME280;75026;49.184;16.564;2024-02-26T19:12:56;97716.47;;;20.18;62.79
84795;BME280;75026;49.184;16.564;2024-02-26T19:17:58;97720.53;;;20.17;63.04
84795;BME280;75026;49.184;16.564;2024-02-26T19:23:01;97729.53;;;20.21;62.94
84795;BME280;75026;49.184;16.564;2024-02-26T19:28:02;97739.94;;;20.21;63.07
84795;BME280;75026;49.184;16.564;2024-02-26T19:33:03;97749.53;;;20.20;63.12
84795;BME280;75026;49.184;16.564;2024-02-26T19:38:06;97751.88;;;20.21;62.97
84795;BME280;75026;49.184;16.564;2024-02-26T19:43:15;97753.56;;;20.19;63.30
84795;BME280;75026;49.184;16.564;2024-02-26T19:48:18;97757.75;;;20.23;63.15
84795;BME280;75026;49.184;16.564;2024-02-26T19:53:21;97758.22;;;20.22;63.13
84795;BME280;75026;49.184;16.564;2024-02-26T19:58:25;97763.50;;;20.20;63.17
84795;BME280;75026;49.184;16.564;2024-02-26T20:03:34;97777.31;;;20.23;63.24
84795;BME280;75026;49.184;16.564;2024-02-26T20:08:35;97772.50;;;20.24;63.42
84795;BME280;75026;49.184;16.564;2024-02-26T20:13:36;97788.97;;;20.22;63.52
84795;BME280;75026;49.184;16.564;2024-02-26T20:18:38;97787.72;;;20.23;63.37
84795;BME280;75026;49.184;16.564;2024-02-26T20:23:54;97794.09;;;20.23;63.61
84795;BME280;75026;49.184;16.564;2024-02-26T20:28:55;97796.59;;;20.21;63.44
84795;BME280;75026;49.184;16.564;2024-02-26T20:33:59;97791.00;;;20.21;63.69
84795;BME280;75026;49.184;16.564;2024-02-26T20:39:02;97792.06;;;20.24;63.55
84795;BME280;75026;49.184;16.564;2024-02-26T20:44:03;97810.41;;;20.25;63.64
84795;BME280;75026;49.184;16.564;2024-02-26T20:49:06;97813.66;;;20.23;63.55
84795;BME280;75026;49.184;16.564;2024-02-26T20:54:08;97806.84;;;20.24;63.56
84795;BME280;75026;49.184;16.564;2024-02-26T20:59:34;97823.59;;;20.24;63.61
84795;BME280;75026;49.184;16.564;2024-02-26T21:09:52;97825.94;;;20.26;63.67
84795;BME280;75026;49.184;16.564;2024-02-26T21:15:00;97832.28;;;20.26;63.67
84795;BME280;75026;49.184;16.564;2024-02-26T21:20:21;97833.84;;;20.27;63.63
84795;BME280;75026;49.184;16.564;2024-02-26T21:30:36;97838.19;;;20.28;63.74
84795;BME280;75026;49.184;16.564;2024-02-26T21:36:01;97833.84;;;20.27;63.77
84795;BME280;75026;49.184;16.564;2024-02-26T21:41:05;97834.47;;;20.31;63.65
84795;BME280;75026;49.184;16.564;2024-02-26T21:46:28;97841.44;;;20.27;63.65
84795;BME280;75026;49.184;16.564;2024-02-26T21:51:30;97850.31;;;20.34;63.59
84795;BME280;75026;49.184;16.564;2024-02-26T21:56:35;97862.44;;;20.31;63.52
84795;BME280;75026;49.184;16.564;2024-02-26T22:01:42;97865.38;;;19.78;60.92
84795;BME280;75026;49.184;16.564;2024-02-26T22:06:43;97857.69;;;20.01;63.56
84795;BME280;75026;49.184;16.564;2024-02-26T22:11:44;97862.41;;;20.13;63.26
84795;BME280;75026;49.184;16.564;2024-02-26T22:16:45;97854.94;;;20.19;63.30
84795;BME280;75026;49.184;16.564;2024-02-26T22:21:47;97855.56;;;20.23;63.35
84795;BME280;75026;49.184;16.564;2024-02-26T22:26:48;97855.25;;;20.21;63.25
84795;BME280;75026;49.184;16.564;2024-02-26T22:31:49;97860.38;;;20.23;63.42
84795;BME280;75026;49.184;16.564;2024-02-26T22:36:55;97859.59;;;20.22;63.55
84795;BME280;75026;49.184;16.564;2024-02-26T22:41:56;97860.53;;;20.19;63.72
84795;BME280;75026;49.184;16.564;2024-02-26T22:46:57;97860.22;;;20.17;63.80
84795;BME280;75026;49.184;16.564;2024-02-26T22:51:58;97852.78;;;20.23;63.60
84795;BME280;75026;49.184;16.564;2024-02-26T22:56:59;97862.53;;;20.19;63.46
84795;BME280;75026;49.184;16.564;2024-02-26T23:02:00;97859.13;;;20.15;63.79
84795;BME280;75026;49.184;16.564;2024-02-26T23:07:00;97880.38;;;20.12;63.72
84795;BME280;75026;49.184;16.564;2024-02-26T23:12:03;97871.69;;;20.10;63.75
84795;BME280;75026;49.184;16.564;2024-02-26T23:17:03;97878.50;;;20.09;63.81
84795;BME280;75026;49.184;16.564;2024-02-26T23:22:04;97880.06;;;20.10;63.74
84795;BME280;75026;49.184;16.564;2024-02-26T23:27:05;97871.38;;;20.08;63.86
84795;BME280;75026;49.184;16.564;2024-02-26T23:32:06;97855.53;;;20.05;64.11
84795;BME280;75026;49.184;16.564;2024-02-26T23:37:07;97875.56;;;20.03;64.07
84795;BME280;75026;49.184;16.564;2024-02-26T23:42:08;97889.34;;;19.98;64.18
84795;BME280;75026;49.184;16.564;2024-02-26T23:47:09;97891.69;;;19.99;64.24
84795;BME280;75026;49.184;16.564;2024-02-26T23:52:10;97899.72;;;19.97;64.27
84795;BME280;75026;49.184;16.564;2024-02-26T23:57:10;97896.78;;;19.92;64.39
